Time;durP1;ratioP1;P1;durP2;ratioP2;P2;SDS_P1;SDS_P2;PMS_P1;PMS_P2;Temp;Humidity;BMP_temperature;BMP_pressure;BME280_temperature;BME280_humidity;BME280_pressure;Samples;Min_cycle;Max_cycle;Signal;HPM_P1;HPM_P2
2022/12/25 00:00:51;;;;;;;14.33;7.53;;;6.00;77.70;;;;;;4992648;28;20468;-50
2022/12/25 00:03:18;;;;;;;7.10;5.37;;;5.90;77.60;;;;;;4993717;28;20523;-50
2022/12/25 00:05:44;;;;;;;8.43;6.83;;;5.80;77.50;;;;;;4989491;28;20493;-52
2022/12/25 00:08:15;;;;;;;7.40;4.87;;;5.60;77.90;;;;;;4992301;28;20749;-52
2022/12/25 00:10:41;;;;;;;10.60;6.20;;;5.50;78.10;;;;;;4994372;28;20854;-51
2022/12/25 00:13:08;;;;;;;12.57;5.70;;;5.30;79.50;;;;;;4988775;28;20544;-50
2022/12/25 00:15:34;;;;;;;10.37;5.43;;;5.30;80.00;;;;;;4985846;28;20543;-51
2022/12/25 00:18:01;;;;;;;7.00;4.50;;;5.20;81.00;;;;;;4990922;28;20555;-51
2022/12/25 00:20:27;;;;;;;5.07;4.67;;;5.10;82.10;;;;;;4986380;28;20543;-50
2022/12/25 00:22:54;;;;;;;3.70;3.40;;;5.00;82.00;;;;;;4992257;28;20618;-50
2022/12/25 00:25:22;;;;;;;4.23;3.83;;;4.90;82.50;;;;;;4992201;28;20540;-50
2022/12/25 00:27:48;;;;;;;23.90;4.10;;;4.70;83.80;;;;;;4989306;28;20567;-50
2022/12/25 00:30:15;;;;;;;14.53;4.50;;;4.60;84.40;;;;;;4991817;28;20532;-51
2022/12/25 00:32:41;;;;;;;9.80;4.33;;;4.60;85.50;;;;;;4986528;28;20933;-50
2022/12/25 00:35:09;;;;;;;10.10;6.00;;;4.50;86.10;;;;;;4988951;28;20460;-50
2022/12/25 00:37:35;;;;;;;7.97;3.20;;;4.50;88.10;;;;;;4991664;28;20543;-50
2022/12/25 00:40:02;;;;;;;16.10;3.60;;;4.40;89.00;;;;;;4992856;28;20547;-50
2022/12/25 00:42:29;;;;;;;4.93;2.80;;;4.50;89.80;;;;;;4989836;28;20492;-51
2022/12/25 00:44:56;;;;;;;4.97;2.60;;;4.40;89.30;;;;;;4992821;28;20568;-50
2022/12/25 00:47:23;;;;;;;2.60;2.43;;;4.30;88.80;;;;;;4992543;28;20579;-51
2022/12/25 00:49:49;;;;;;;19.83;2.77;;;4.20;89.40;;;;;;4994098;28;20856;-50
2022/12/25 00:52:16;;;;;;;22.50;2.67;;;4.10;91.00;;;;;;4991475;28;21128;-50
2022/12/25 00:54:42;;;;;;;3.93;3.47;;;4.00;91.10;;;;;;4991516;28;20547;-50
2022/12/25 00:57:09;;;;;;;2.30;2.20;;;3.90;91.90;;;;;;4991827;28;20577;-50
2022/12/25 00:59:37;;;;;;;17.27;3.30;;;3.90;93.40;;;;;;4993592;28;20548;-50
2022/12/25 01:04:44;;;;;;;2.87;2.67;;;3.80;95.00;;;;;;4981393;28;20432;-51
2022/12/25 01:07:11;;;;;;;3.73;3.33;;;3.70;95.50;;;;;;4992495;28;20575;-50
2022/12/25 01:12:22;;;;;;;9.83;4.57;;;3.70;96.10;;;;;;4990155;28;20499;-51
2022/12/25 01:14:50;;;;;;;10.53;4.27;;;3.70;98.70;;;;;;4989507;28;20544;-50
2022/12/25 01:17:16;;;;;;;10.03;5.40;;;3.80;99.90;;;;;;4990799;28;21250;-50
2022/12/25 01:19:43;;;;;;;8.93;4.70;;;3.90;99.90;;;;;;4992057;28;20543;-51
2022/12/25 01:22:10;;;;;;;6.33;5.13;;;4.00;99.90;;;;;;4992241;28;20548;-50
2022/12/25 01:24:36;;;;;;;7.87;4.37;;;4.10;99.90;;;;;;4991980;28;20570;-50
2022/12/25 01:27:03;;;;;;;8.67;4.97;;;4.00;98.30;;;;;;4987861;28;21038;-51
2022/12/25 01:29:29;;;;;;;8.00;5.47;;;4.00;99.90;;;;;;4990545;28;20555;-50
2022/12/25 01:31:57;;;;;;;7.73;4.20;;;3.90;99.10;;;;;;4991500;28;20460;-50
2022/12/25 01:34:24;;;;;;;10.70;6.40;;;3.70;98.00;;;;;;4990346;28;21115;-50
2022/12/25 01:36:50;;;;;;;6.93;3.87;;;3.60;96.80;;;;;;4992158;28;20878;-50
2022/12/25 01:39:17;;;;;;;4.40;4.00;;;3.50;97.20;;;;;;4991634;28;20503;-50
2022/12/25 01:41:43;;;;;;;6.13;5.33;;;3.40;98.10;;;;;;4992329;28;20547;-51
2022/12/25 01:44:43;;;;;;;8.80;5.20;;;3.30;99.40;;;;;;4989233;28;20567;-50
2022/12/25 01:47:12;;;;;;;4.97;4.50;;;3.20;99.90;;;;;;4983599;28;21288;-51
2022/12/25 01:49:40;;;;;;;7.07;4.40;;;3.20;99.90;;;;;;4991239;28;20544;-51
2022/12/25 01:52:11;;;;;;;9.20;5.17;;;3.10;99.90;;;;;;4991185;28;21049;-51
2022/12/25 01:54:41;;;;;;;12.47;5.80;;;3.10;99.90;;;;;;4989570;28;20555;-50
2022/12/25 01:57:11;;;;;;;6.70;4.80;;;3.10;99.90;;;;;;4989303;28;20913;-52
2022/12/25 01:59:39;;;;;;;5.73;4.63;;;3.10;99.90;;;;;;4984584;28;20591;-50
2022/12/25 02:02:06;;;;;;;9.10;4.80;;;3.00;99.90;;;;;;4987831;28;20466;-50
2022/12/25 02:04:40;;;;;;;9.67;5.50;;;2.90;99.90;;;;;;4989538;28;20542;-50
2022/12/25 02:07:08;;;;;;;7.53;4.97;;;2.90;99.90;;;;;;4991723;28;20464;-50
2022/12/25 02:09:35;;;;;;;11.17;6.37;;;2.80;99.90;;;;;;4988460;28;20464;-50
2022/12/25 02:12:01;;;;;;;6.33;5.33;;;2.70;99.90;;;;;;4984748;28;20497;-51
2022/12/25 02:14:30;;;;;;;6.90;4.97;;;2.70;99.90;;;;;;5005455;22;20786;-51
2022/12/25 02:17:03;;;;;;;6.40;5.67;;;2.70;99.90;;;;;;5007386;28;20503;-51
2022/12/25 02:19:56;;;;;;;6.03;5.13;;;2.70;99.90;;;;;;5008095;28;20538;-51
2022/12/25 02:22:33;;;;;;;6.93;4.97;;;2.60;99.90;;;;;;5008872;28;20539;-51
2022/12/25 02:25:13;;;;;;;21.53;6.97;;;2.50;99.90;;;;;;5005287;28;20600;-51
2022/12/25 02:27:57;;;;;;;8.10;5.30;;;2.50;99.90;;;;;;5008074;28;20479;-51
2022/12/25 02:30:23;;;;;;;7.40;5.70;;;2.50;99.90;;;;;;5008616;28;20499;-51
2022/12/25 02:34:01;;;;;;;5.43;4.93;;;2.40;99.90;;;;;;5009581;28;20972;-51
2022/12/25 02:35:46;;;;;;;5.70;5.20;;;2.40;99.90;;;;;;5007696;28;20477;-51
2022/12/25 02:38:18;;;;;;;11.47;6.23;;;2.30;99.90;;;;;;5010194;28;20539;-52
2022/12/25 02:40:49;;;;;;;22.50;6.50;;;2.40;99.90;;;;;;5005405;28;20487;-52
2022/12/25 03:08:30;;;;;;;9.30;6.40;;;2.10;99.90;;;;;;5011504;28;20883;-52
2022/12/25 03:13:48;;;;;;;8.33;5.37;;;2.10;99.90;;;;;;5012568;28;20466;-52
2022/12/25 03:26:53;;;;;;;5.67;5.07;;;2.10;99.90;;;;;;5012297;28;20461;-52
2022/12/25 03:27:33;;;;;;;7.00;5.70;;;1.80;99.90;;;;;;5006240;28;20498;-52
2022/12/25 03:32:57;;;;;;;7.93;5.70;;;1.80;99.90;;;;;;5011635;28;20454;-56
2022/12/25 03:35:28;;;;;;;7.70;6.13;;;1.80;99.90;;;;;;5004400;28;20515;-52
2022/12/25 04:36:14;;;;;;;11.97;6.70;;;1.20;99.90;;;;;;5010060;28;20954;-51
2022/12/25 04:38:42;;;;;;;16.73;6.43;;;1.20;99.90;;;;;;5010447;28;20566;-51
2022/12/25 04:41:10;;;;;;;8.63;6.03;;;1.10;99.90;;;;;;5012304;28;20539;-51
2022/12/25 04:43:37;;;;;;;10.40;8.03;;;1.20;99.90;;;;;;5012119;28;20598;-51
2022/12/25 04:46:05;;;;;;;16.43;7.00;;;1.10;99.90;;;;;;5007555;28;20567;-51
2022/12/25 04:48:33;;;;;;;6.00;5.20;;;1.10;99.90;;;;;;5008875;28;20575;-51
2022/12/25 04:51:10;;;;;;;5.87;5.37;;;1.10;99.90;;;;;;5013503;28;20550;-51
2022/12/25 04:53:36;;;;;;;7.37;5.70;;;1.10;99.90;;;;;;5010176;28;20550;-52
2022/12/25 04:56:05;;;;;;;7.27;6.00;;;1.10;99.90;;;;;;5012633;28;20511;-52
2022/12/25 04:58:31;;;;;;;8.40;5.10;;;1.10;99.90;;;;;;5011262;28;21000;-52
2022/12/25 05:00:59;;;;;;;5.50;4.97;;;1.10;99.90;;;;;;5008348;28;20538;-52
2022/12/25 05:03:26;;;;;;;5.40;4.67;;;1.00;99.90;;;;;;5011083;28;20987;-52
2022/12/25 05:05:52;;;;;;;4.70;4.30;;;1.00;99.90;;;;;;5008005;28;21051;-51
2022/12/25 05:08:19;;;;;;;6.90;4.57;;;0.90;99.90;;;;;;5012142;28;20480;-53
2022/12/25 05:10:45;;;;;;;4.60;4.23;;;0.90;99.90;;;;;;5012026;28;20532;-52
2022/12/25 05:13:13;;;;;;;7.77;3.57;;;0.90;99.90;;;;;;5011566;28;20539;-51
2022/12/25 05:15:40;;;;;;;6.33;4.10;;;0.80;99.90;;;;;;5011930;28;20515;-51
2022/12/25 05:18:07;;;;;;;4.13;3.73;;;0.80;99.90;;;;;;5009945;28;20551;-52
2022/12/25 05:20:33;;;;;;;3.70;3.40;;;0.80;99.90;;;;;;5012833;28;21005;-52
2022/12/25 05:23:00;;;;;;;5.37;4.83;;;0.80;99.90;;;;;;5012416;28;20635;-52
2022/12/25 05:25:26;;;;;;;16.50;4.23;;;0.90;99.90;;;;;;5011127;28;20559;-51
2022/12/25 05:27:53;;;;;;;23.80;5.03;;;0.90;99.90;;;;;;5009819;28;20559;-51
2022/12/25 05:30:21;;;;;;;10.97;4.70;;;0.80;99.90;;;;;;5010583;28;20538;-51
2022/12/25 05:32:47;;;;;;;5.50;5.10;;;0.80;99.90;;;;;;5011399;28;20542;-51
2022/12/25 05:35:14;;;;;;;5.23;4.73;;;0.80;99.90;;;;;;5010444;28;20570;-51
2022/12/25 05:37:41;;;;;;;7.30;6.60;;;0.80;99.90;;;;;;5011760;28;20563;-52
2022/12/25 05:40:09;;;;;;;8.67;6.10;;;0.80;99.90;;;;;;5012395;28;20483;-51
2022/12/25 05:42:35;;;;;;;7.10;6.43;;;0.70;99.90;;;;;;5013003;28;20472;-52
2022/12/25 05:45:02;;;;;;;11.57;7.57;;;0.70;99.90;;;;;;5010768;28;20571;-51
2022/12/25 05:47:30;;;;;;;12.80;7.10;;;0.70;99.90;;;;;;5010748;28;20555;-53
2022/12/25 05:49:56;;;;;;;7.63;6.90;;;0.70;99.90;;;;;;5010394;28;21083;-51
2022/12/25 05:52:23;;;;;;;7.10;6.40;;;0.70;99.90;;;;;;5004904;28;20543;-51
2022/12/25 05:54:49;;;;;;;7.73;7.00;;;0.70;99.90;;;;;;5010484;28;20490;-52
2022/12/25 05:57:16;;;;;;;9.40;6.57;;;0.70;99.90;;;;;;5010882;28;20562;-51
2022/12/25 05:59:42;;;;;;;9.03;7.43;;;0.60;99.90;;;;;;5010657;28;20912;-51
2022/12/25 06:02:09;;;;;;;6.57;5.90;;;0.60;99.90;;;;;;5010831;28;20527;-52
2022/12/25 06:04:37;;;;;;;11.00;6.97;;;0.60;99.90;;;;;;5011023;28;20579;-51
2022/12/25 06:07:03;;;;;;;8.30;6.70;;;0.60;99.90;;;;;;5009121;28;21216;-55
2022/12/25 06:09:30;;;;;;;10.43;7.33;;;0.60;99.90;;;;;;5011723;28;20591;-56
2022/12/25 06:11:56;;;;;;;11.33;7.77;;;0.50;99.90;;;;;;5011576;28;20554;-54
2022/12/25 06:14:23;;;;;;;7.17;6.47;;;0.50;99.90;;;;;;5008743;28;20532;-54
2022/12/25 06:16:51;;;;;;;6.43;5.83;;;0.60;99.90;;;;;;5010101;28;21034;-59
2022/12/25 06:19:18;;;;;;;7.50;6.80;;;0.60;99.90;;;;;;5005499;28;20478;-57
2022/12/25 06:21:46;;;;;;;11.63;6.57;;;0.60;99.90;;;;;;5008750;28;20578;-55
2022/12/25 06:24:13;;;;;;;8.53;6.37;;;0.70;99.90;;;;;;5009586;28;20562;-54
2022/12/25 06:26:39;;;;;;;14.67;6.33;;;0.60;99.90;;;;;;5008432;28;20555;-55
2022/12/25 06:29:06;;;;;;;8.43;7.57;;;0.70;99.90;;;;;;5005389;28;20856;-54
2022/12/25 06:31:32;;;;;;;6.90;6.30;;;0.60;99.90;;;;;;5011198;28;20546;-54
2022/12/25 06:33:59;;;;;;;7.80;7.00;;;0.60;99.90;;;;;;5008022;28;20551;-55
2022/12/25 06:36:28;;;;;;;14.60;6.80;;;0.60;99.90;;;;;;5010640;28;20464;-55
2022/12/25 06:38:56;;;;;;;7.83;6.80;;;0.60;99.90;;;;;;4999414;28;20463;-54
2022/12/25 06:41:24;;;;;;;7.50;6.80;;;0.60;99.90;;;;;;5006722;28;20479;-54
2022/12/25 06:43:53;;;;;;;5.57;5.27;;;0.50;99.90;;;;;;5007067;28;20551;-55
2022/12/25 06:46:20;;;;;;;6.10;5.60;;;0.60;99.90;;;;;;5000928;28;20976;-54
2022/12/25 06:48:48;;;;;;;6.57;5.97;;;0.60;99.90;;;;;;5010343;28;20566;-55
2022/12/25 06:51:15;;;;;;;6.50;5.90;;;0.60;99.90;;;;;;5011337;28;20496;-55
2022/12/25 06:53:42;;;;;;;6.40;5.80;;;0.60;99.90;;;;;;5011022;28;20554;-55
2022/12/25 06:56:14;;;;;;;6.23;5.63;;;0.60;99.90;;;;;;5008682;28;20570;-56
2022/12/25 06:58:41;;;;;;;6.97;5.53;;;0.70;99.90;;;;;;5005631;28;20490;-55
2022/12/25 07:01:13;;;;;;;6.17;5.60;;;0.70;99.90;;;;;;5012859;28;20539;-58
2022/12/25 07:03:42;;;;;;;5.90;5.40;;;0.70;99.90;;;;;;5006844;28;20499;-54
2022/12/25 07:06:08;;;;;;;6.80;6.10;;;0.70;99.90;;;;;;5014754;28;20997;-54
2022/12/25 07:08:35;;;;;;;6.57;5.97;;;0.70;99.90;;;;;;5002734;28;21052;-55
2022/12/25 07:11:01;;;;;;;7.83;6.63;;;0.70;99.90;;;;;;5008071;28;20558;-55
2022/12/25 07:13:29;;;;;;;8.63;6.10;;;0.70;99.90;;;;;;5010730;28;20560;-55
2022/12/25 07:15:56;;;;;;;7.30;6.60;;;0.80;99.90;;;;;;5008743;28;21016;-55
2022/12/25 07:18:22;;;;;;;9.10;6.30;;;0.80;99.90;;;;;;5008496;28;20467;-54
2022/12/25 07:20:49;;;;;;;10.83;6.23;;;0.70;99.90;;;;;;5010792;28;20985;-55
2022/12/25 07:23:15;;;;;;;8.00;6.43;;;0.70;99.90;;;;;;5009101;28;20540;-54
2022/12/25 07:25:42;;;;;;;11.67;9.07;;;0.70;99.90;;;;;;5011399;28;20920;-54
2022/12/25 07:28:08;;;;;;;13.07;6.67;;;0.70;99.90;;;;;;5008982;28;20534;-54
2022/12/25 07:30:37;;;;;;;8.27;6.67;;;0.80;99.90;;;;;;5009072;28;20574;-57
2022/12/25 07:33:04;;;;;;;9.00;6.87;;;0.80;99.90;;;;;;5007416;28;20558;-56
2022/12/25 07:35:30;;;;;;;7.23;6.53;;;0.80;99.90;;;;;;5003222;28;20562;-56
2022/12/25 07:37:57;;;;;;;8.10;6.67;;;0.80;99.90;;;;;;5009164;28;20963;-56
2022/12/25 07:40:23;;;;;;;9.00;7.00;;;1.10;99.90;;;;;;5010690;28;20519;-58
2022/12/25 07:42:50;;;;;;;6.77;5.83;;;1.30;99.90;;;;;;5001731;28;20898;-57
2022/12/25 07:45:16;;;;;;;7.70;6.27;;;1.40;99.90;;;;;;5006512;28;20562;-56
2022/12/25 07:47:44;;;;;;;8.03;6.30;;;1.50;99.90;;;;;;5011781;28;20566;-59
2022/12/25 07:50:11;;;;;;;7.67;5.37;;;1.90;99.90;;;;;;5007164;28;20543;-57
2022/12/25 07:52:38;;;;;;;8.30;5.57;;;2.00;99.90;;;;;;5012738;28;20554;-57
2022/12/25 07:55:05;;;;;;;10.40;5.60;;;2.20;99.90;;;;;;5011152;28;20545;-57
2022/12/25 07:57:31;;;;;;;5.60;5.10;;;2.30;99.90;;;;;;5012842;28;20538;-57
2022/12/25 07:59:58;;;;;;;9.60;6.30;;;2.40;99.90;;;;;;5013793;28;20647;-57
2022/12/25 08:02:27;;;;;;;6.70;5.40;;;2.40;99.90;;;;;;5008585;28;20586;-57
2022/12/25 08:04:55;;;;;;;8.87;5.53;;;2.40;99.90;;;;;;5008609;28;20479;-58
2022/12/25 08:07:22;;;;;;;6.47;5.87;;;2.50;99.90;;;;;;5006335;28;21599;-57
2022/12/25 08:09:49;;;;;;;9.10;5.80;;;2.50;99.90;;;;;;5009217;28;20566;-57
2022/12/25 08:12:16;;;;;;;7.57;6.57;;;2.40;99.90;;;;;;5009709;28;20538;-58
2022/12/25 08:14:42;;;;;;;8.90;6.77;;;2.40;99.90;;;;;;5011783;28;20593;-53
2022/12/25 08:17:09;;;;;;;12.00;7.90;;;2.40;99.90;;;;;;5011915;28;20551;-55
2022/12/25 08:19:35;;;;;;;11.70;7.03;;;2.40;99.90;;;;;;5013106;28;20544;-54
2022/12/25 08:22:03;;;;;;;10.03;8.00;;;2.40;99.90;;;;;;5006379;28;20558;-52
2022/12/25 08:24:29;;;;;;;9.17;7.17;;;2.50;99.90;;;;;;5009661;28;20590;-52
2022/12/25 08:26:56;;;;;;;8.27;6.33;;;2.40;99.90;;;;;;5010469;28;21008;-52
2022/12/25 08:29:22;;;;;;;7.90;7.10;;;2.50;99.90;;;;;;5009696;28;20515;-52
2022/12/25 08:31:49;;;;;;;9.90;7.67;;;2.60;99.90;;;;;;5012923;28;20487;-52
2022/12/25 08:34:16;;;;;;;11.10;8.60;;;2.60;99.90;;;;;;5013176;28;20575;-51
2022/12/25 08:36:42;;;;;;;11.47;8.73;;;2.60;99.60;;;;;;5013697;28;20551;-52
2022/12/25 08:39:10;;;;;;;19.97;9.93;;;2.60;98.60;;;;;;5011536;28;20464;-51
2022/12/25 08:41:37;;;;;;;21.40;15.80;;;2.70;98.10;;;;;;5005521;28;20634;-50
2022/12/25 08:44:04;;;;;;;19.33;12.03;;;2.70;96.80;;;;;;5001738;28;20496;-51
2022/12/25 08:46:30;;;;;;;9.90;8.50;;;2.80;96.10;;;;;;5013245;28;20550;-51
2022/12/25 08:48:57;;;;;;;7.53;6.80;;;2.90;95.20;;;;;;5007143;28;20544;-51
2022/12/25 08:51:25;;;;;;;8.27;7.57;;;3.00;93.60;;;;;;5011806;28;20463;-52
2022/12/25 08:53:53;;;;;;;27.50;11.27;;;2.90;90.40;;;;;;5007227;28;20552;-51
2022/12/25 08:56:21;;;;;;;9.63;6.87;;;2.90;89.20;;;;;;4987368;28;23083;-52
2022/12/25 08:58:47;;;;;;;18.20;12.70;;;2.90;86.20;;;;;;5001413;28;20815;-52
2022/12/25 09:01:14;;;;;;;21.27;8.80;;;3.00;86.70;;;;;;5006664;28;20555;-52
2022/12/25 09:03:41;;;;;;;13.53;7.20;;;3.00;84.50;;;;;;5011227;28;20538;-52
2022/12/25 09:06:10;;;;;;;10.00;6.83;;;3.10;83.50;;;;;;5013177;28;20475;-53
2022/12/25 09:08:37;;;;;;;11.43;7.13;;;3.00;81.60;;;;;;5008975;28;20527;-52
2022/12/25 09:11:04;;;;;;;11.70;5.63;;;3.10;82.00;;;;;;5007771;28;20490;-52
2022/12/25 09:13:32;;;;;;;6.00;5.50;;;3.00;80.00;;;;;;5009453;28;20539;-53
2022/12/25 09:15:59;;;;;;;6.60;5.23;;;3.10;80.60;;;;;;5009193;28;20523;-59
2022/12/25 09:18:26;;;;;;;15.47;5.17;;;3.10;79.40;;;;;;5010806;28;20555;-52
2022/12/25 09:20:58;;;;;;;11.77;5.40;;;3.00;79.20;;;;;;5011166;28;20551;-53
2022/12/25 09:23:25;;;;;;;5.83;5.33;;;3.10;78.90;;;;;;5006308;28;20459;-52
2022/12/25 09:25:51;;;;;;;10.30;4.73;;;3.10;78.60;;;;;;5007707;28;20612;-52
2022/12/25 09:28:18;;;;;;;6.50;5.47;;;3.20;78.70;;;;;;5009754;28;20538;-53
2022/12/25 09:30:46;;;;;;;6.70;5.30;;;3.10;78.20;;;;;;5008689;28;20505;-52
2022/12/25 09:33:12;;;;;;;7.83;5.37;;;3.20;77.40;;;;;;5003736;28;20460;-53
2022/12/25 09:35:39;;;;;;;7.60;5.37;;;3.30;76.70;;;;;;5007685;28;20574;-52
2022/12/25 09:38:05;;;;;;;5.37;4.97;;;3.30;76.20;;;;;;5006332;28;22545;-52
2022/12/25 09:40:32;;;;;;;5.47;5.07;;;3.50;75.70;;;;;;5011531;28;20495;-52
2022/12/25 09:43:00;;;;;;;5.20;4.80;;;3.50;74.70;;;;;;5005355;28;20529;-52
2022/12/25 09:45:31;;;;;;;6.33;4.73;;;3.60;74.20;;;;;;5010435;28;20570;-52
2022/12/25 09:47:59;;;;;;;11.30;4.97;;;3.70;74.00;;;;;;5007423;28;20464;-52
2022/12/25 09:50:37;;;;;;;18.27;4.80;;;3.70;74.80;;;;;;5008005;28;20579;-52
2022/12/25 09:53:09;;;;;;;18.00;4.77;;;3.60;76.60;;;;;;5008223;28;20917;-52
2022/12/25 09:55:43;;;;;;;5.77;5.07;;;3.60;76.60;;;;;;5006137;28;20567;-52
2022/12/25 09:58:12;;;;;;;11.30;5.27;;;3.60;79.20;;;;;;5003639;28;20551;-52
2022/12/25 10:00:41;;;;;;;9.90;4.93;;;3.60;80.90;;;;;;5002826;28;20459;-52
2022/12/25 10:03:26;;;;;;;10.87;5.00;;;3.70;79.70;;;;;;5002041;28;20908;-54
2022/12/25 10:06:05;;;;;;;23.50;5.40;;;3.70;80.30;;;;;;5005144;28;20609;-53
2022/12/25 10:09:00;;;;;;;8.10;5.00;;;3.60;87.10;;;;;;5007635;28;20522;-53
2022/12/25 10:11:40;;;;;;;15.70;5.23;;;3.60;83.20;;;;;;4996956;28;20930;-51
2022/12/25 10:14:19;;;;;;;12.90;5.67;;;3.80;78.50;;;;;;5011265;28;20519;-52
2022/12/25 10:16:55;;;;;;;10.00;5.37;;;3.70;83.80;;;;;;5009372;28;20550;-52
2022/12/25 10:19:34;;;;;;;8.00;5.60;;;3.80;78.10;;;;;;5015043;28;20565;-52
2022/12/25 10:22:09;;;;;;;10.57;5.53;;;3.80;77.60;;;;;;5003013;28;20505;-52
2022/12/25 10:24:39;;;;;;;12.03;5.80;;;3.80;79.00;;;;;;5001472;28;20547;-53
2022/12/25 10:27:15;;;;;;;10.40;5.47;;;3.80;76.60;;;;;;5006536;28;20543;-52
2022/12/25 10:29:45;;;;;;;17.83;6.50;;;3.80;75.70;;;;;;5016053;28;20545;-53
2022/12/25 10:32:11;;;;;;;19.17;5.10;;;3.90;75.70;;;;;;5007193;28;20460;-54
2022/12/25 10:34:41;;;;;;;13.70;6.33;;;3.80;75.00;;;;;;5010439;28;20551;-52
2022/12/25 10:37:09;;;;;;;27.23;5.40;;;3.70;77.00;;;;;;5005605;28;20492;-53
2022/12/25 10:39:36;;;;;;;47.33;6.50;;;3.70;75.80;;;;;;4999747;28;20544;-51
2022/12/25 10:42:33;;;;;;;38.40;6.47;;;3.70;75.70;;;;;;5007687;28;20487;-51
2022/12/25 10:45:01;;;;;;;27.83;6.47;;;3.70;74.40;;;;;;5005980;28;20561;-52
2022/12/25 10:47:30;;;;;;;36.60;7.23;;;3.70;73.80;;;;;;5000358;28;20469;-52
2022/12/25 10:49:59;;;;;;;24.00;7.27;;;3.80;72.90;;;;;;5006330;28;22342;-53
2022/12/25 10:52:28;;;;;;;48.30;7.27;;;3.90;71.80;;;;;;5008435;28;20554;-53
2022/12/25 10:54:56;;;;;;;28.17;7.80;;;3.90;70.80;;;;;;5009977;28;20483;-53
2022/12/25 10:57:24;;;;;;;45.37;8.10;;;3.90;70.40;;;;;;5019771;28;20558;-53
2022/12/25 10:59:54;;;;;;;46.43;7.27;;;4.00;70.00;;;;;;5024790;28;20852;-52
2022/12/25 11:02:25;;;;;;;34.27;8.20;;;4.00;69.30;;;;;;5010496;28;20459;-52
2022/12/25 11:05:01;;;;;;;9.40;8.50;;;4.10;69.20;;;;;;5016880;28;20557;-52
2022/12/25 11:07:28;;;;;;;29.47;8.60;;;4.20;69.40;;;;;;5017232;28;20467;-52
2022/12/25 11:09:56;;;;;;;19.97;8.90;;;4.30;68.60;;;;;;5024725;28;21091;-56
2022/12/25 11:12:29;;;;;;;15.33;8.83;;;4.40;67.60;;;;;;5031224;28;21020;-54
2022/12/25 11:14:58;;;;;;;19.13;9.23;;;4.40;66.80;;;;;;5030688;28;21071;-53
2022/12/25 11:17:26;;;;;;;32.07;8.73;;;4.50;65.70;;;;;;5011752;28;20555;-52
2022/12/25 11:19:55;;;;;;;12.70;9.57;;;4.50;65.00;;;;;;5014390;28;20479;-52
2022/12/25 11:22:23;;;;;;;19.90;9.63;;;4.60;65.30;;;;;;5014443;28;21025;-52
2022/12/25 11:24:50;;;;;;;25.30;9.27;;;4.60;63.70;;;;;;5013595;28;21091;-52
2022/12/25 11:27:26;;;;;;;12.13;9.73;;;4.60;63.90;;;;;;5009729;28;21227;-52
2022/12/25 11:29:57;;;;;;;12.30;9.63;;;4.70;64.00;;;;;;5013996;28;20533;-52
2022/12/25 11:32:29;;;;;;;33.30;9.23;;;4.60;63.60;;;;;;5014440;28;20499;-52
2022/12/25 11:34:57;;;;;;;30.47;10.73;;;4.60;64.30;;;;;;5013786;28;20490;-53
2022/12/25 11:37:30;;;;;;;31.60;10.83;;;4.60;64.30;;;;;;5016947;28;20840;-52
2022/12/25 11:39:57;;;;;;;40.83;11.40;;;4.60;64.50;;;;;;5016061;28;20444;-54
2022/12/25 11:42:28;;;;;;;29.67;11.57;;;4.50;64.60;;;;;;5019305;28;20480;-53
2022/12/25 11:44:58;;;;;;;57.87;11.50;;;4.60;64.80;;;;;;5008249;28;20480;-53
2022/12/25 11:47:32;;;;;;;28.37;10.73;;;4.50;64.10;;;;;;5013935;28;20570;-52
2022/12/25 11:50:02;;;;;;;19.20;11.50;;;4.60;64.90;;;;;;5010838;28;20545;-52
2022/12/25 11:52:36;;;;;;;17.53;10.80;;;4.60;65.30;;;;;;5017659;28;20736;-52
2022/12/25 11:55:07;;;;;;;12.87;11.30;;;4.50;65.30;;;;;;5013036;28;20515;-52
2022/12/25 11:57:35;;;;;;;13.23;11.50;;;4.50;65.60;;;;;;5016956;28;20543;-53
2022/12/25 12:00:05;;;;;;;20.90;10.70;;;4.60;65.40;;;;;;5034536;28;20917;-51
2022/12/25 12:02:38;;;;;;;13.83;10.70;;;4.50;65.00;;;;;;5018292;28;20455;-52
2022/12/25 12:05:14;;;;;;;21.07;10.47;;;4.50;66.50;;;;;;5013657;28;20511;-52
2022/12/25 12:07:53;;;;;;;20.50;10.00;;;4.50;65.60;;;;;;5014484;28;20538;-52
2022/12/25 12:10:27;;;;;;;17.43;11.47;;;4.50;66.60;;;;;;5014321;28;20479;-53
2022/12/25 12:13:03;;;;;;;13.87;10.83;;;4.50;66.00;;;;;;5013711;28;20546;-52
2022/12/25 12:15:35;;;;;;;17.20;10.40;;;4.60;67.40;;;;;;5012716;28;20589;-52
2022/12/25 12:18:08;;;;;;;12.63;10.13;;;4.60;66.80;;;;;;5013842;28;20530;-53
2022/12/25 12:20:36;;;;;;;21.23;10.47;;;4.70;67.10;;;;;;5016220;28;20511;-52
2022/12/25 12:23:13;;;;;;;10.77;9.53;;;4.70;67.20;;;;;;5009886;28;20496;-52
2022/12/25 12:25:41;;;;;;;13.33;10.60;;;4.70;66.40;;;;;;5008862;28;20510;-52
2022/12/25 12:28:13;;;;;;;10.80;9.70;;;4.70;66.30;;;;;;5011934;28;20510;-52
2022/12/25 12:30:40;;;;;;;12.80;10.87;;;4.70;67.20;;;;;;5007233;28;20479;-53
2022/12/25 12:33:18;;;;;;;11.20;10.03;;;4.70;67.70;;;;;;5010756;28;21009;-52
2022/12/25 12:35:45;;;;;;;14.77;11.17;;;4.70;67.70;;;;;;5007732;28;21543;-52
2022/12/25 12:38:17;;;;;;;10.20;9.13;;;4.70;66.90;;;;;;5005441;28;20542;-52
2022/12/25 12:40:53;;;;;;;13.50;9.87;;;4.80;67.50;;;;;;5007322;28;20535;-52
2022/12/25 12:43:30;;;;;;;12.27;10.90;;;4.80;67.10;;;;;;5006984;28;20859;-52
2022/12/25 12:46:01;;;;;;;13.57;10.80;;;4.80;67.30;;;;;;5012067;28;20480;-52
2022/12/25 12:48:29;;;;;;;12.93;11.23;;;4.80;67.00;;;;;;5010876;28;21040;-52
2022/12/25 12:51:02;;;;;;;12.10;10.80;;;4.80;66.80;;;;;;5009434;28;20497;-52
2022/12/25 12:53:31;;;;;;;11.87;10.70;;;4.80;66.60;;;;;;5003206;28;20478;-52
2022/12/25 12:56:19;;;;;;;10.33;9.33;;;4.80;65.30;;;;;;5007537;28;20910;-52
2022/12/25 12:58:49;;;;;;;10.20;9.20;;;4.80;66.10;;;;;;5011713;28;20535;-52
2022/12/25 13:01:30;;;;;;;13.73;10.47;;;4.90;66.10;;;;;;5008996;28;20535;-52
2022/12/25 13:04:13;;;;;;;11.83;9.83;;;4.80;65.10;;;;;;5013265;28;20538;-52
2022/12/25 13:06:43;;;;;;;12.73;10.83;;;4.90;65.60;;;;;;5012646;28;20532;-52
2022/12/25 13:09:23;;;;;;;12.30;9.87;;;4.80;64.70;;;;;;5018661;28;20542;-52
2022/12/25 13:11:50;;;;;;;12.43;9.30;;;4.80;66.00;;;;;;5006968;28;20666;-52
2022/12/25 13:14:20;;;;;;;11.10;9.53;;;4.90;66.20;;;;;;5008646;28;21080;-53
2022/12/25 13:16:49;;;;;;;11.00;9.53;;;4.90;66.70;;;;;;5011305;28;20554;-53
2022/12/25 13:19:20;;;;;;;10.90;9.20;;;4.90;66.20;;;;;;5010019;28;20550;-52
2022/12/25 13:21:53;;;;;;;10.30;8.90;;;4.80;65.50;;;;;;5026311;28;20531;-52
2022/12/25 13:24:23;;;;;;;8.83;7.83;;;4.90;66.00;;;;;;5003973;28;20494;-52
2022/12/25 13:26:49;;;;;;;11.33;9.63;;;4.90;65.40;;;;;;5001419;28;20474;-53
2022/12/25 13:29:23;;;;;;;9.47;8.40;;;4.90;66.10;;;;;;5000954;28;20534;-51
2022/12/25 13:31:50;;;;;;;10.10;8.77;;;4.90;65.30;;;;;;5009019;28;20570;-51
2022/12/25 13:34:26;;;;;;;9.27;7.83;;;4.90;66.00;;;;;;5007698;28;20949;-52
2022/12/25 13:36:55;;;;;;;10.97;8.23;;;4.90;65.40;;;;;;5006663;28;20551;-52
2022/12/25 13:39:23;;;;;;;9.00;7.30;;;4.90;65.80;;;;;;5006555;28;20915;-52
2022/12/25 13:42:05;;;;;;;9.60;7.60;;;4.80;65.70;;;;;;5008126;28;20498;-52
2022/12/25 13:44:44;;;;;;;8.83;7.73;;;4.80;66.10;;;;;;5007082;28;20578;-52
2022/12/25 13:47:24;;;;;;;7.60;6.90;;;4.80;67.50;;;;;;5003634;28;20550;-52
2022/12/25 13:49:52;;;;;;;8.77;7.87;;;4.90;68.00;;;;;;5007631;28;20578;-52
2022/12/25 13:52:20;;;;;;;12.83;9.03;;;4.80;68.60;;;;;;5005850;28;20484;-51
2022/12/25 13:54:59;;;;;;;9.30;7.27;;;4.90;69.60;;;;;;5008127;28;20483;-51
2022/12/25 13:57:32;;;;;;;10.87;7.90;;;4.90;70.00;;;;;;5007699;28;20949;-52
2022/12/25 14:00:00;;;;;;;8.47;6.83;;;4.90;70.00;;;;;;5015250;28;20545;-54
2022/12/25 14:02:31;;;;;;;7.70;7.00;;;4.90;69.80;;;;;;5004277;28;20468;-54
2022/12/25 14:04:58;;;;;;;6.83;6.20;;;4.90;71.10;;;;;;5009611;28;20479;-54
2022/12/25 14:07:25;;;;;;;7.37;6.47;;;4.90;70.10;;;;;;5008806;28;20555;-54
2022/12/25 14:09:57;;;;;;;11.10;7.43;;;4.90;70.60;;;;;;5010073;28;20466;-53
2022/12/25 14:12:28;;;;;;;10.20;7.30;;;4.90;70.60;;;;;;5004765;28;20491;-54
2022/12/25 14:14:56;;;;;;;10.90;7.50;;;4.90;70.10;;;;;;5023876;22;20946;-52
2022/12/25 14:17:24;;;;;;;9.43;7.37;;;4.90;71.30;;;;;;4990041;28;20544;-52
2022/12/25 14:20:00;;;;;;;7.30;6.60;;;4.90;72.00;;;;;;4991121;28;20548;-52
2022/12/25 14:22:28;;;;;;;10.43;6.57;;;4.90;72.40;;;;;;4998109;28;20460;-52
2022/12/25 14:24:55;;;;;;;11.27;7.43;;;4.90;74.50;;;;;;4990900;28;20620;-52
2022/12/25 14:27:24;;;;;;;9.40;7.20;;;4.90;74.10;;;;;;4986804;28;20543;-53
2022/12/25 14:29:55;;;;;;;9.87;7.30;;;5.00;75.60;;;;;;4989334;28;20551;-52
2022/12/25 14:32:24;;;;;;;7.93;6.33;;;5.00;75.50;;;;;;4988417;28;20489;-52
2022/12/25 14:34:53;;;;;;;9.47;6.93;;;4.90;74.30;;;;;;4997550;28;21059;-52
2022/12/25 14:37:23;;;;;;;10.50;7.20;;;5.00;75.30;;;;;;4983396;28;20468;-51
2022/12/25 14:39:56;;;;;;;14.00;6.97;;;5.00;75.50;;;;;;4991310;28;20551;-52
2022/12/25 14:42:24;;;;;;;19.00;16.60;;;5.00;75.60;;;;;;4996802;28;21289;-53
2022/12/25 14:45:02;;;;;;;7.93;6.30;;;5.00;76.70;;;;;;4998574;28;20488;-54